^^
Saratoga-Weather Station Historical Data
Daily Summary for June 6, 2020 Units:  Both    English   Metric
Daily Weekly Monthly Yearly Custom
  High: Low: Average:
Temperature: 68.5 °F /  20.3 °C 53.1 °F /  11.7 °C 61.9 °F /  16.6 °C
Dew Point: 63 °F /  17.2 °C 46.2 °F /  7.9 °C 49.5 °F /  9.7 °C
Humidity: 91% 46% 65%
Wind Speed: 21mph /  33.8km/h - 5.2mph /  8.3km/h
Wind Gust: 21mph /  33.8km/h - -
Wind- - West
Pressure: 30.2 in /  1021.3 hPa 29.9 in /  1012.9 hPa -
Precipitation: 0 in /  0.0 mm    
Historical Graphs
 
 
Tabular Data for June 6, 2020
Time Temperature Dew Point Pressure Wind Wind Speed Wind Gust Humidity Rainfall Rate (Hourly) solar
00:02 65.8 °F /  18.8 °C 62.8 °F /  17.1 °C 29.9in /  1012.9hPa Calm   1mph /  1.6km/h 90% 0in /  0.0mm 0 W/m2
00:07 65.7 °F /  18.7 °C 62.6 °F /  17 °C 29.9in /  1012.9hPa WNW 0.9mph /  1.4km/h 1mph /  1.6km/h 90% 0in /  0.0mm 0 W/m2
00:12 65.7 °F /  18.7 °C 62.6 °F /  17 °C 29.9in /  1012.9hPa Calm   1mph /  1.6km/h 90% 0in /  0.0mm 0 W/m2
00:17 65.5 °F /  18.6 °C 62.4 °F /  16.9 °C 29.9in /  1012.9hPa WSW 2.9mph /  4.7km/h 4mph /  6.4km/h 90% 0in /  0.0mm 0 W/m2
00:27 65.5 °F /  18.6 °C 62.8 °F /  17.1 °C 29.9in /  1012.9hPa SW 2.9mph /  4.7km/h 4mph /  6.4km/h 91% 0in /  0.0mm 0 W/m2
00:32 65.7 °F /  18.7 °C 63 °F /  17.2 °C 29.9in /  1012.9hPa WSW 2mph /  3.2km/h 8mph /  12.9km/h 91% 0in /  0.0mm 0 W/m2
00:37 65.8 °F /  18.8 °C 62.8 °F /  17.1 °C 29.9in /  1012.9hPa NW 2mph /  3.2km/h 7mph /  11.3km/h 90% 0in /  0.0mm 0 W/m2
00:42 65.8 °F /  18.8 °C 62.8 °F /  17.1 °C 29.9in /  1012.9hPa West 2.9mph /  4.7km/h 7mph /  11.3km/h 90% 0in /  0.0mm 0 W/m2
00:47 65.8 °F /  18.8 °C 62.8 °F /  17.1 °C 29.9in /  1012.9hPa West 2.9mph /  4.7km/h 11mph /  17.7km/h 90% 0in /  0.0mm 0 W/m2
00:52 65.8 °F /  18.8 °C 62.4 °F /  16.9 °C 29.9in /  1013.2hPa West 6.9mph /  11.1km/h 7mph /  11.3km/h 89% 0in /  0.0mm 0 W/m2
00:57 65.8 °F /  18.8 °C 62.2 °F /  16.8 °C 29.9in /  1012.9hPa West 6.9mph /  11.1km/h 14mph /  22.5km/h 88% 0in /  0.0mm 0 W/m2
01:02 65.8 °F /  18.8 °C 62.2 °F /  16.8 °C 29.9in /  1013.2hPa West 2.9mph /  4.7km/h 6mph /  9.7km/h 88% 0in /  0.0mm 0 W/m2
01:08 65.7 °F /  18.7 °C 61.7 °F /  16.5 °C 29.9in /  1013.2hPa NNW 2.9mph /  4.7km/h 14mph /  22.5km/h 87% 0in /  0.0mm 0 W/m2
01:13 65.7 °F /  18.7 °C 61.3 °F /  16.3 °C 29.9in /  1013.5hPa West 6.9mph /  11.1km/h 9mph /  14.5km/h 86% 0in /  0.0mm 0 W/m2
01:23 65.5 °F /  18.6 °C 60.4 °F /  15.8 °C 29.9in /  1013.5hPa WNW 10.1mph /  16.3km/h 11mph /  17.7km/h 84% 0in /  0.0mm 0 W/m2
01:28 65.5 °F /  18.6 °C 59.9 °F /  15.5 °C 29.9in /  1013.5hPa SSW 2.9mph /  4.7km/h 8mph /  12.9km/h 82% 0in /  0.0mm 0 W/m2
01:33 65.1 °F /  18.4 °C 59.2 °F /  15.1 °C 29.9in /  1013.5hPa WNW 2.9mph /  4.7km/h 11mph /  17.7km/h 81% 0in /  0.0mm 0 W/m2
01:38 64.9 °F /  18.3 °C 58.3 °F /  14.6 °C 29.9in /  1013.5hPa NW 4mph /  6.4km/h 12mph /  19.3km/h 79% 0in /  0.0mm 0 W/m2
01:43 64.8 °F /  18.2 °C 57.4 °F /  14.1 °C 29.9in /  1013.5hPa WSW 8.9mph /  14.3km/h 11mph /  17.7km/h 77% 0in /  0.0mm 0 W/m2
01:48 64.6 °F /  18.1 °C 57.2 °F /  14 °C 29.9in /  1013.9hPa WSW 8.1mph /  13km/h 14mph /  22.5km/h 77% 0in /  0.0mm 0 W/m2
01:53 64.2 °F /  17.9 °C 56.8 °F /  13.8 °C 29.9in /  1013.5hPa West 6mph /  9.7km/h 9mph /  14.5km/h 77% 0in /  0.0mm 0 W/m2
01:58 63.9 °F /  17.7 °C 55.8 °F /  13.2 °C 29.9in /  1013.5hPa WNW 8.1mph /  13km/h 14mph /  22.5km/h 75% 0in /  0.0mm 0 W/m2
02:03 63.9 °F /  17.7 °C 55 °F /  12.8 °C 30in /  1014.2hPa WSW 21mph /  33.8km/h 21mph /  33.8km/h 73% 0in /  0.0mm 0 W/m2
02:08 63.5 °F /  17.5 °C 54.3 °F /  12.4 °C 29.9in /  1013.9hPa West 10.1mph /  16.3km/h 17mph /  27.4km/h 72% 0in /  0.0mm 0 W/m2
02:13 63.3 °F /  17.4 °C 54.1 °F /  12.3 °C 30in /  1014.2hPa West 11mph /  17.7km/h 21mph /  33.8km/h 72% 0in /  0.0mm 0 W/m2
02:18 63.1 °F /  17.3 °C 54 °F /  12.2 °C 29.9in /  1013.9hPa WSW 8.9mph /  14.3km/h 11mph /  17.7km/h 72% 0in /  0.0mm 0 W/m2
02:23 63 °F /  17.2 °C 53.8 °F /  12.1 °C 30in /  1014.2hPa WSW 4.9mph /  7.9km/h 12mph /  19.3km/h 72% 0in /  0.0mm 0 W/m2
02:28 62.8 °F /  17.1 °C 53.6 °F /  12 °C 30in /  1014.2hPa West 4mph /  6.4km/h 11mph /  17.7km/h 72% 0in /  0.0mm 0 W/m2
02:33 62.4 °F /  16.9 °C 52.9 °F /  11.6 °C 30in /  1014.2hPa WSW 11mph /  17.7km/h 17mph /  27.4km/h 71% 0in /  0.0mm 0 W/m2
02:38 62.2 °F /  16.8 °C 52.3 °F /  11.3 °C 30in /  1014.2hPa West 12.1mph /  19.5km/h 14mph /  22.5km/h 70% 0in /  0.0mm 0 W/m2
02:44 62.1 °F /  16.7 °C 52.2 °F /  11.2 °C 30in /  1014.2hPa WSW 8.1mph /  13km/h 9mph /  14.5km/h 70% 0in /  0.0mm 0 W/m2
02:49 61.7 °F /  16.5 °C 52.2 °F /  11.2 °C 30in /  1014.6hPa WNW 6.9mph /  11.1km/h 10mph /  16.1km/h 71% 0in /  0.0mm 0 W/m2
02:59 61.2 °F /  16.2 °C 52 °F /  11.1 °C 30in /  1014.6hPa WNW 8.1mph /  13km/h 17mph /  27.4km/h 72% 0in /  0.0mm 0 W/m2
03:04 60.8 °F /  16 °C 52.2 °F /  11.2 °C 30in /  1014.6hPa WNW 4mph /  6.4km/h 11mph /  17.7km/h 73% 0in /  0.0mm 0 W/m2
03:09 60.4 °F /  15.8 °C 52.2 °F /  11.2 °C 30in /  1014.6hPa WNW 8.1mph /  13km/h 17mph /  27.4km/h 74% 0in /  0.0mm 0 W/m2
03:14 60.3 °F /  15.7 °C 51.6 °F /  10.9 °C 30in /  1014.6hPa WNW 8.9mph /  14.3km/h 12mph /  19.3km/h 73% 0in /  0.0mm 0 W/m2
03:19 59.9 °F /  15.5 °C 50.9 °F /  10.5 °C 30in /  1014.6hPa WNW 8.1mph /  13km/h 11mph /  17.7km/h 72% 0in /  0.0mm 0 W/m2
03:24 59.5 °F /  15.3 °C 50.9 °F /  10.5 °C 30in /  1014.6hPa WSW 10.1mph /  16.3km/h 12mph /  19.3km/h 73% 0in /  0.0mm 0 W/m2
03:29 59.4 °F /  15.2 °C 50.7 °F /  10.4 °C 30in /  1014.6hPa NNW 4.9mph /  7.9km/h 12mph /  19.3km/h 73% 0in /  0.0mm 0 W/m2
03:34 59 °F /  15 °C 50 °F /  10 °C 30in /  1014.6hPa WNW 8.1mph /  13km/h 10mph /  16.1km/h 72% 0in /  0.0mm 0 W/m2
03:39 58.6 °F /  14.8 °C 50 °F /  10 °C 30in /  1014.6hPa WSW 8.9mph /  14.3km/h 9mph /  14.5km/h 73% 0in /  0.0mm 0 W/m2
03:44 58.3 °F /  14.6 °C 49.3 °F /  9.6 °C 30in /  1014.6hPa WSW 6.9mph /  11.1km/h 12mph /  19.3km/h 72% 0in /  0.0mm 0 W/m2
03:49 57.9 °F /  14.4 °C 48.9 °F /  9.4 °C 30in /  1014.9hPa West 4mph /  6.4km/h 10mph /  16.1km/h 72% 0in /  0.0mm 0 W/m2
03:54 57.6 °F /  14.2 °C 48.6 °F /  9.2 °C 30in /  1014.9hPa West 4mph /  6.4km/h 14mph /  22.5km/h 72% 0in /  0.0mm 0 W/m2
03:59 57.2 °F /  14 °C 48.2 °F /  9 °C 30in /  1014.9hPa WSW 4.9mph /  7.9km/h 9mph /  14.5km/h 72% 0in /  0.0mm 0 W/m2
04:04 56.8 °F /  13.8 °C 48.2 °F /  9 °C 30in /  1014.9hPa NW 4mph /  6.4km/h 8mph /  12.9km/h 73% 0in /  0.0mm 0 W/m2
04:09 56.5 °F /  13.6 °C 48 °F /  8.9 °C 30in /  1014.9hPa West 6.9mph /  11.1km/h 8mph /  12.9km/h 73% 0in /  0.0mm 0 W/m2
04:14 56.1 °F /  13.4 °C 48 °F /  8.9 °C 30in /  1015.2hPa WNW 2mph /  3.2km/h 11mph /  17.7km/h 74% 0in /  0.0mm 0 W/m2
04:19 55.9 °F /  13.3 °C 48.2 °F /  9 °C 30in /  1015.2hPa West 0.9mph /  1.4km/h 4mph /  6.4km/h 75% 0in /  0.0mm 0 W/m2
04:24 55.6 °F /  13.1 °C 47.8 °F /  8.8 °C 30in /  1015.2hPa WSW 2mph /  3.2km/h 8mph /  12.9km/h 75% 0in /  0.0mm 0 W/m2
04:30 55.2 °F /  12.9 °C 47.8 °F /  8.8 °C 30in /  1015.2hPa West 4mph /  6.4km/h 6mph /  9.7km/h 76% 0in /  0.0mm 0 W/m2
04:35 55 °F /  12.8 °C 47.7 °F /  8.7 °C 30in /  1015.2hPa West 8.1mph /  13km/h 8mph /  12.9km/h 76% 0in /  0.0mm 0 W/m2
04:40 54.9 °F /  12.7 °C 47.8 °F /  8.8 °C 30in /  1015.2hPa SW 4.9mph /  7.9km/h 6mph /  9.7km/h 77% 0in /  0.0mm 0 W/m2
04:45 54.7 °F /  12.6 °C 47.7 °F /  8.7 °C 30in /  1015.2hPa West 8.1mph /  13km/h 11mph /  17.7km/h 77% 0in /  0.0mm 0 W/m2
04:50 54.5 °F /  12.5 °C 47.5 °F /  8.6 °C 30in /  1015.2hPa West 6mph /  9.7km/h 11mph /  17.7km/h 77% 0in /  0.0mm 0 W/m2
04:55 54.5 °F /  12.5 °C 47.8 °F /  8.8 °C 30in /  1015.2hPa WNW 4mph /  6.4km/h 9mph /  14.5km/h 78% 0in /  0.0mm 0 W/m2
05:00 54.3 °F /  12.4 °C 47.7 °F /  8.7 °C 30in /  1015.2hPa WSW 4.9mph /  7.9km/h 10mph /  16.1km/h 78% 0in /  0.0mm 0 W/m2
05:05 54.3 °F /  12.4 °C 47.7 °F /  8.7 °C 30in /  1015.2hPa West 2.9mph /  4.7km/h 8mph /  12.9km/h 78% 0in /  0.0mm 0 W/m2
05:10 54.1 °F /  12.3 °C 47.5 °F /  8.6 °C 30in /  1015.2hPa West 2.9mph /  4.7km/h 5mph /  8km/h 78% 0in /  0.0mm 0 W/m2
05:15 54 °F /  12.2 °C 47.7 °F /  8.7 °C 30in /  1015.2hPa WNW 4mph /  6.4km/h 7mph /  11.3km/h 79% 0in /  0.0mm 0 W/m2
05:20 53.8 °F /  12.1 °C 47.5 °F /  8.6 °C 30in /  1015.6hPa NW 4mph /  6.4km/h 4mph /  6.4km/h 79% 0in /  0.0mm 0 W/m2
05:25 53.6 °F /  12 °C 47.7 °F /  8.7 °C 30in /  1015.2hPa West 0.9mph /  1.4km/h 3mph /  4.8km/h 80% 0in /  0.0mm 0 W/m2
05:30 53.4 °F /  11.9 °C 47.5 °F /  8.6 °C 30in /  1015.6hPa SW 4mph /  6.4km/h 5mph /  8km/h 80% 0in /  0.0mm 0 W/m2
05:35 53.4 °F /  11.9 °C 47.7 °F /  8.7 °C 30in /  1015.6hPa WNW 2.9mph /  4.7km/h 8mph /  12.9km/h 81% 0in /  0.0mm 0 W/m2
05:40 53.4 °F /  11.9 °C 47.7 °F /  8.7 °C 30in /  1015.6hPa West 6mph /  9.7km/h 6mph /  9.7km/h 81% 0in /  0.0mm 5 W/m2
05:45 53.4 °F /  11.9 °C 47.7 °F /  8.7 °C 30in /  1015.6hPa WNW 2mph /  3.2km/h 5mph /  8km/h 81% 0in /  0.0mm 5 W/m2
05:50 53.2 °F /  11.8 °C 47.5 °F /  8.6 °C 30in /  1015.6hPa West 4mph /  6.4km/h 5mph /  8km/h 81% 0in /  0.0mm 7 W/m2
05:55 53.1 °F /  11.7 °C 47.7 °F /  8.7 °C 30in /  1015.6hPa WNW 4mph /  6.4km/h 7mph /  11.3km/h 82% 0in /  0.0mm 9 W/m2
06:00 53.1 °F /  11.7 °C 47.7 °F /  8.7 °C 30in /  1015.6hPa WNW 2mph /  3.2km/h 9mph /  14.5km/h 82% 0in /  0.0mm 12 W/m2
06:05 53.1 °F /  11.7 °C 48 °F /  8.9 °C 30in /  1015.9hPa WNW 0.9mph /  1.4km/h 7mph /  11.3km/h 83% 0in /  0.0mm 14 W/m2
06:10 53.1 °F /  11.7 °C 48 °F /  8.9 °C 30in /  1015.6hPa WNW 2.9mph /  4.7km/h 4mph /  6.4km/h 83% 0in /  0.0mm 19 W/m2
06:15 53.2 °F /  11.8 °C 48.2 °F /  9 °C 30in /  1015.6hPa NW 2mph /  3.2km/h 8mph /  12.9km/h 83% 0in /  0.0mm 25 W/m2
06:20 53.2 °F /  11.8 °C 47.8 °F /  8.8 °C 30in /  1015.6hPa WNW 6.9mph /  11.1km/h 7mph /  11.3km/h 82% 0in /  0.0mm 21 W/m2
06:25 53.4 °F /  11.9 °C 48 °F /  8.9 °C 30in /  1015.6hPa WNW 4.9mph /  7.9km/h 8mph /  12.9km/h 82% 0in /  0.0mm 51 W/m2
06:30 53.8 °F /  12.1 °C 48.4 °F /  9.1 °C 30in /  1015.6hPa NNW 2.9mph /  4.7km/h 4mph /  6.4km/h 82% 0in /  0.0mm 47 W/m2
06:35 54 °F /  12.2 °C 48.6 °F /  9.2 °C 30in /  1015.9hPa WNW 2.9mph /  4.7km/h 9mph /  14.5km/h 82% 0in /  0.0mm 51 W/m2
06:40 54.1 °F /  12.3 °C 48.4 °F /  9.1 °C 30in /  1015.9hPa West 2mph /  3.2km/h 4mph /  6.4km/h 81% 0in /  0.0mm 37 W/m2
06:45 54.1 °F /  12.3 °C 48.4 °F /  9.1 °C 30in /  1015.9hPa West 9mph /  14.5km/h 9mph /  14.5km/h 81% 0in /  0.0mm 51 W/m2
06:50 54.3 °F /  12.4 °C 48.6 °F /  9.2 °C 30in /  1015.9hPa West 6mph /  9.7km/h 6mph /  9.7km/h 81% 0in /  0.0mm 60 W/m2
06:55 54.3 °F /  12.4 °C 48.6 °F /  9.2 °C 30in /  1015.9hPa West 0.9mph /  1.4km/h 3mph /  4.8km/h 81% 0in /  0.0mm 72 W/m2
07:00 54.3 °F /  12.4 °C 48.6 °F /  9.2 °C 30in /  1015.9hPa SW 2mph /  3.2km/h 3mph /  4.8km/h 81% 0in /  0.0mm 77 W/m2
07:05 54.3 °F /  12.4 °C 48.6 °F /  9.2 °C 30in /  1015.9hPa West 0.9mph /  1.4km/h 5mph /  8km/h 81% 0in /  0.0mm 69 W/m2
07:10 54.5 °F /  12.5 °C 48.7 °F /  9.3 °C 30in /  1015.9hPa WNW 2mph /  3.2km/h 4mph /  6.4km/h 81% 0in /  0.0mm 69 W/m2
07:15 54.7 °F /  12.6 °C 48.9 °F /  9.4 °C 30in /  1016.3hPa West 6mph /  9.7km/h 8mph /  12.9km/h 81% 0in /  0.0mm 77 W/m2
07:20 54.7 °F /  12.6 °C 48.9 °F /  9.4 °C 30in /  1016.3hPa West 0.9mph /  1.4km/h 3mph /  4.8km/h 81% 0in /  0.0mm 62 W/m2
07:25 54.9 °F /  12.7 °C 49.1 °F /  9.5 °C 30in /  1016.3hPa SW 4mph /  6.4km/h 4mph /  6.4km/h 81% 0in /  0.0mm 72 W/m2
07:30 55 °F /  12.8 °C 48.9 °F /  9.4 °C 30in /  1016.3hPa West 2.9mph /  4.7km/h 6mph /  9.7km/h 80% 0in /  0.0mm 51 W/m2
07:35 55 °F /  12.8 °C 48.9 °F /  9.4 °C 30in /  1016.3hPa WSW 2mph /  3.2km/h 3mph /  4.8km/h 80% 0in /  0.0mm 49 W/m2
07:40 55.2 °F /  12.9 °C 49.1 °F /  9.5 °C 30in /  1016.3hPa NW 0.9mph /  1.4km/h 6mph /  9.7km/h 80% 0in /  0.0mm 65 W/m2
07:45 55.6 °F /  13.1 °C 49.5 °F /  9.7 °C 30in /  1016.3hPa West 2mph /  3.2km/h 4mph /  6.4km/h 80% 0in /  0.0mm 74 W/m2
07:50 55.6 °F /  13.1 °C 49.1 °F /  9.5 °C 30in /  1016.3hPa West 2.9mph /  4.7km/h 9mph /  14.5km/h 79% 0in /  0.0mm 142 W/m2
07:55 55.8 °F /  13.2 °C 49.6 °F /  9.8 °C 30in /  1016.3hPa West 0.9mph /  1.4km/h 5mph /  8km/h 80% 0in /  0.0mm 86 W/m2
08:00 55.9 °F /  13.3 °C 49.8 °F /  9.9 °C 30in /  1016.3hPa NNW 2mph /  3.2km/h 9mph /  14.5km/h 80% 0in /  0.0mm 239 W/m2
08:05 56.3 °F /  13.5 °C 50.2 °F /  10.1 °C 30in /  1016.3hPa WSW 2.9mph /  4.7km/h 8mph /  12.9km/h 80% 0in /  0.0mm 373 W/m2
08:10 56.8 °F /  13.8 °C 50.4 °F /  10.2 °C 30in /  1016.3hPa NNW 4.9mph /  7.9km/h 9mph /  14.5km/h 79% 0in /  0.0mm 366 W/m2
08:15 57.4 °F /  14.1 °C 50.5 °F /  10.3 °C 30in /  1016.6hPa WSW 4mph /  6.4km/h 5mph /  8km/h 78% 0in /  0.0mm 362 W/m2
08:21 57.4 °F /  14.1 °C 50.2 °F /  10.1 °C 30in /  1016.6hPa West 8.1mph /  13km/h 12mph /  19.3km/h 77% 0in /  0.0mm 139 W/m2
08:26 57.2 °F /  14 °C 50 °F /  10 °C 30in /  1016.6hPa West 8.1mph /  13km/h 9mph /  14.5km/h 77% 0in /  0.0mm 153 W/m2
08:31 57.2 °F /  14 °C 50 °F /  10 °C 30in /  1016.6hPa NNW 8.9mph /  14.3km/h 11mph /  17.7km/h 77% 0in /  0.0mm 98 W/m2
08:36 57.4 °F /  14.1 °C 49.5 °F /  9.7 °C 30in /  1016.6hPa WNW 6.9mph /  11.1km/h 10mph /  16.1km/h 75% 0in /  0.0mm 118 W/m2
08:41 57.7 °F /  14.3 °C 49.8 °F /  9.9 °C 30in /  1016.6hPa WSW 8.9mph /  14.3km/h 10mph /  16.1km/h 75% 0in /  0.0mm 239 W/m2
08:46 57.7 °F /  14.3 °C 49.5 °F /  9.7 °C 30in /  1016.6hPa NW 4mph /  6.4km/h 10mph /  16.1km/h 74% 0in /  0.0mm 116 W/m2
08:51 57.6 °F /  14.2 °C 48.9 °F /  9.4 °C 30in /  1016.6hPa West 6.9mph /  11.1km/h 11mph /  17.7km/h 73% 0in /  0.0mm 76 W/m2
08:56 57.6 °F /  14.2 °C 48.9 °F /  9.4 °C 30in /  1016.9hPa NW 2.9mph /  4.7km/h 4mph /  6.4km/h 73% 0in /  0.0mm 172 W/m2
09:01 58.3 °F /  14.6 °C 50 °F /  10 °C 30in /  1016.6hPa West 2.9mph /  4.7km/h 6mph /  9.7km/h 74% 0in /  0.0mm 253 W/m2
09:06 58.6 °F /  14.8 °C 49.6 °F /  9.8 °C 30in /  1016.6hPa SW 6.9mph /  11.1km/h 10mph /  16.1km/h 72% 0in /  0.0mm 188 W/m2
09:11 57.9 °F /  14.4 °C 48.9 °F /  9.4 °C 30in /  1016.9hPa WSW 6mph /  9.7km/h 10mph /  16.1km/h 72% 0in /  0.0mm 128 W/m2
09:16 57.7 °F /  14.3 °C 48.7 °F /  9.3 °C 30in /  1016.9hPa West 8.1mph /  13km/h 10mph /  16.1km/h 72% 0in /  0.0mm 128 W/m2
09:21 57.4 °F /  14.1 °C 48.7 °F /  9.3 °C 30in /  1016.9hPa WSW 6.9mph /  11.1km/h 13mph /  20.9km/h 73% 0in /  0.0mm 146 W/m2
09:26 57.2 °F /  14 °C 48.9 °F /  9.4 °C 30in /  1016.9hPa West 2.9mph /  4.7km/h 8mph /  12.9km/h 74% 0in /  0.0mm 142 W/m2
09:31 57.7 °F /  14.3 °C 49.1 °F /  9.5 °C 30in /  1016.9hPa West 6.9mph /  11.1km/h 13mph /  20.9km/h 73% 0in /  0.0mm 179 W/m2
09:36 57.9 °F /  14.4 °C 48.2 °F /  9 °C 30in /  1016.9hPa WNW 8.1mph /  13km/h 10mph /  16.1km/h 70% 0in /  0.0mm 160 W/m2
09:41 58.1 °F /  14.5 °C 48.4 °F /  9.1 °C 30in /  1016.9hPa NNW 4mph /  6.4km/h 7mph /  11.3km/h 70% 0in /  0.0mm 443 W/m2
09:46 58.6 °F /  14.8 °C 48.6 °F /  9.2 °C 30in /  1016.9hPa West 6mph /  9.7km/h 10mph /  16.1km/h 69% 0in /  0.0mm 244 W/m2
09:51 59 °F /  15 °C 48.4 °F /  9.1 °C 30in /  1016.9hPa WSW 10.1mph /  16.3km/h 11mph /  17.7km/h 68% 0in /  0.0mm 338 W/m2
09:56 58.8 °F /  14.9 °C 47.8 °F /  8.8 °C 30in /  1016.9hPa NNW 4mph /  6.4km/h 10mph /  16.1km/h 67% 0in /  0.0mm 220 W/m2
10:01 59 °F /  15 °C 48.9 °F /  9.4 °C 30in /  1016.9hPa NW 4.9mph /  7.9km/h 11mph /  17.7km/h 69% 0in /  0.0mm 385 W/m2
10:06 59 °F /  15 °C 48.4 °F /  9.1 °C 30in /  1016.9hPa WNW 6.9mph /  11.1km/h 14mph /  22.5km/h 68% 0in /  0.0mm 308 W/m2
10:11 59.4 °F /  15.2 °C 48.7 °F /  9.3 °C 30in /  1016.9hPa WNW 4mph /  6.4km/h 8mph /  12.9km/h 68% 0in /  0.0mm 281 W/m2
10:16 59.4 °F /  15.2 °C 48.4 °F /  9.1 °C 30in /  1017.3hPa West 8.1mph /  13km/h 9mph /  14.5km/h 67% 0in /  0.0mm 262 W/m2
10:21 59.5 °F /  15.3 °C 48.9 °F /  9.4 °C 30in /  1016.9hPa West 4mph /  6.4km/h 12mph /  19.3km/h 68% 0in /  0.0mm 448 W/m2
10:26 59.5 °F /  15.3 °C 48.6 °F /  9.2 °C 30in /  1017.3hPa West 6.9mph /  11.1km/h 10mph /  16.1km/h 67% 0in /  0.0mm 265 W/m2
10:31 59.4 °F /  15.2 °C 49.1 °F /  9.5 °C 30in /  1017.3hPa WNW 8.1mph /  13km/h 8mph /  12.9km/h 69% 0in /  0.0mm 267 W/m2
10:36 59.4 °F /  15.2 °C 48.7 °F /  9.3 °C 30in /  1017.3hPa West 6mph /  9.7km/h 10mph /  16.1km/h 68% 0in /  0.0mm 554 W/m2
10:41 60.1 °F /  15.6 °C 49.5 °F /  9.7 °C 30in /  1017.3hPa WSW 2.9mph /  4.7km/h 10mph /  16.1km/h 68% 0in /  0.0mm 860 W/m2
10:46 60.3 °F /  15.7 °C 49.6 °F /  9.8 °C 30in /  1017.3hPa West 4mph /  6.4km/h 10mph /  16.1km/h 68% 0in /  0.0mm 343 W/m2
10:51 60.4 °F /  15.8 °C 48.6 °F /  9.2 °C 30.1in /  1017.6hPa NNW 8.9mph /  14.3km/h 13mph /  20.9km/h 65% 0in /  0.0mm 276 W/m2
10:56 60.6 °F /  15.9 °C 48.7 °F /  9.3 °C 30in /  1017.3hPa NW 13mph /  20.9km/h 16mph /  25.7km/h 65% 0in /  0.0mm 909 W/m2
11:01 60.6 °F /  15.9 °C 48.7 °F /  9.3 °C 30.1in /  1017.6hPa NE 2.9mph /  4.7km/h 8mph /  12.9km/h 65% 0in /  0.0mm 301 W/m2
11:06 60.3 °F /  15.7 °C 48 °F /  8.9 °C 30.1in /  1017.6hPa West 4mph /  6.4km/h 16mph /  25.7km/h 64% 0in /  0.0mm 211 W/m2
11:11 60.3 °F /  15.7 °C 48.4 °F /  9.1 °C 30.1in /  1017.6hPa West 4mph /  6.4km/h 9mph /  14.5km/h 65% 0in /  0.0mm 234 W/m2
11:16 61 °F /  16.1 °C 48.7 °F /  9.3 °C 30.1in /  1017.6hPa West 6.9mph /  11.1km/h 17mph /  27.4km/h 64% 0in /  0.0mm 1000 W/m2
11:21 61 °F /  16.1 °C 47.8 °F /  8.8 °C 30.1in /  1018.0hPa WNW 8.9mph /  14.3km/h 11mph /  17.7km/h 62% 0in /  0.0mm 218 W/m2
11:26 60.3 °F /  15.7 °C 48 °F /  8.9 °C 30.1in /  1017.6hPa West 6.9mph /  11.1km/h 12mph /  19.3km/h 64% 0in /  0.0mm 202 W/m2
11:31 59.7 °F /  15.4 °C 47.5 °F /  8.6 °C 30.1in /  1017.6hPa West 4mph /  6.4km/h 9mph /  14.5km/h 64% 0in /  0.0mm 211 W/m2
11:36 60.3 °F /  15.7 °C 47.7 °F /  8.7 °C 30.1in /  1017.6hPa NNW 4mph /  6.4km/h 14mph /  22.5km/h 63% 0in /  0.0mm 937 W/m2
11:41 61 °F /  16.1 °C 48.4 °F /  9.1 °C 30.1in /  1017.6hPa WNW 8.1mph /  13km/h 10mph /  16.1km/h 63% 0in /  0.0mm 867 W/m2
11:46 61.7 °F /  16.5 °C 48.2 °F /  9 °C 30.1in /  1017.6hPa NW 4.9mph /  7.9km/h 14mph /  22.5km/h 61% 0in /  0.0mm 886 W/m2
11:51 62.4 °F /  16.9 °C 48.7 °F /  9.3 °C 30in /  1017.3hPa West 8.1mph /  13km/h 10mph /  16.1km/h 61% 0in /  0.0mm 891 W/m2
11:56 63.1 °F /  17.3 °C 47.7 °F /  8.7 °C 30.1in /  1017.6hPa West 6mph /  9.7km/h 12mph /  19.3km/h 57% 0in /  0.0mm 865 W/m2
12:01 63.1 °F /  17.3 °C 47.7 °F /  8.7 °C 30.1in /  1017.6hPa SW 6mph /  9.7km/h 11mph /  17.7km/h 57% 0in /  0.0mm 853 W/m2
12:06 63.1 °F /  17.3 °C 46.2 °F /  7.9 °C 30.1in /  1017.6hPa WNW 2.9mph /  4.7km/h 13mph /  20.9km/h 54% 0in /  0.0mm 870 W/m2
12:11 63.9 °F /  17.7 °C 47.3 °F /  8.5 °C 30in /  1017.3hPa WNW 4mph /  6.4km/h 9mph /  14.5km/h 55% 0in /  0.0mm 937 W/m2
12:16 63.9 °F /  17.7 °C 46.9 °F /  8.3 °C 30.1in /  1017.6hPa WSW 8.9mph /  14.3km/h 17mph /  27.4km/h 54% 0in /  0.0mm 267 W/m2
12:21 63.1 °F /  17.3 °C 47.7 °F /  8.7 °C 30.1in /  1017.6hPa NW 4mph /  6.4km/h 9mph /  14.5km/h 57% 0in /  0.0mm 350 W/m2
12:26 63.7 °F /  17.6 °C 48.2 °F /  9 °C 30.1in /  1017.6hPa WNW 2.9mph /  4.7km/h 11mph /  17.7km/h 57% 0in /  0.0mm 566 W/m2
12:31 63.9 °F /  17.7 °C 47.8 °F /  8.8 °C 30.1in /  1017.6hPa WNW 4.9mph /  7.9km/h 13mph /  20.9km/h 56% 0in /  0.0mm 225 W/m2
12:36 63.9 °F /  17.7 °C 47.3 °F /  8.5 °C 30.1in /  1017.6hPa NW 6mph /  9.7km/h 15mph /  24.1km/h 55% 0in /  0.0mm 1055 W/m2
12:41 63.9 °F /  17.7 °C 48.7 °F /  9.3 °C 30.1in /  1017.6hPa SW 6mph /  9.7km/h 10mph /  16.1km/h 58% 0in /  0.0mm 1025 W/m2
12:46 64 °F /  17.8 °C 48 °F /  8.9 °C 30.1in /  1017.6hPa WNW 14.1mph /  22.7km/h 16mph /  25.7km/h 56% 0in /  0.0mm 1025 W/m2
12:51 63.9 °F /  17.7 °C 48.4 °F /  9.1 °C 30.1in /  1017.6hPa WSW 8.1mph /  13km/h 9mph /  14.5km/h 57% 0in /  0.0mm 946 W/m2
12:56 64.4 °F /  18 °C 49.3 °F /  9.6 °C 30.1in /  1017.6hPa West 11mph /  17.7km/h 12mph /  19.3km/h 58% 0in /  0.0mm 947 W/m2
13:01 64.9 °F /  18.3 °C 49.3 °F /  9.6 °C 30.1in /  1017.6hPa West 10.1mph /  16.3km/h 10mph /  16.1km/h 57% 0in /  0.0mm 977 W/m2
13:06 65.5 °F /  18.6 °C 48.4 °F /  9.1 °C 30.1in /  1017.6hPa West 4mph /  6.4km/h 10mph /  16.1km/h 54% 0in /  0.0mm 942 W/m2
13:11 66.2 °F /  19 °C 48.6 °F /  9.2 °C 30.1in /  1017.6hPa WNW 6.9mph /  11.1km/h 9mph /  14.5km/h 53% 0in /  0.0mm 1060 W/m2
13:16 66 °F /  18.9 °C 47.3 °F /  8.5 °C 30.1in /  1017.6hPa NW 11mph /  17.7km/h 14mph /  22.5km/h 51% 0in /  0.0mm 272 W/m2
13:21 65.8 °F /  18.8 °C 48.2 °F /  9 °C 30.1in /  1017.6hPa NNW 8.9mph /  14.3km/h 10mph /  16.1km/h 53% 0in /  0.0mm 436 W/m2
13:26 65.3 °F /  18.5 °C 47.3 °F /  8.5 °C 30.1in /  1017.6hPa WSW 10.1mph /  16.3km/h 15mph /  24.1km/h 52% 0in /  0.0mm 304 W/m2
13:31 65.3 °F /  18.5 °C 47.7 °F /  8.7 °C 30.1in /  1017.6hPa West 8.9mph /  14.3km/h 12mph /  19.3km/h 53% 0in /  0.0mm 461 W/m2
13:36 65.1 °F /  18.4 °C 47.5 °F /  8.6 °C 30.1in /  1017.6hPa WNW 8.1mph /  13km/h 9mph /  14.5km/h 53% 0in /  0.0mm 369 W/m2
13:41 66 °F /  18.9 °C 48.4 °F /  9.1 °C 30.1in /  1017.6hPa WNW 4.9mph /  7.9km/h 12mph /  19.3km/h 53% 0in /  0.0mm 1232 W/m2
13:46 66 °F /  18.9 °C 47.8 °F /  8.8 °C 30.1in /  1017.6hPa WNW 12.1mph /  19.5km/h 14mph /  22.5km/h 52% 0in /  0.0mm 1137 W/m2
13:51 65.8 °F /  18.8 °C 48.7 °F /  9.3 °C 30.1in /  1017.6hPa West 2.9mph /  4.7km/h 7mph /  11.3km/h 54% 0in /  0.0mm 1063 W/m2
13:56 66 °F /  18.9 °C 48.4 °F /  9.1 °C 30.1in /  1017.6hPa West 4mph /  6.4km/h 8mph /  12.9km/h 53% 0in /  0.0mm 977 W/m2
14:01 66.7 °F /  19.3 °C 47.5 °F /  8.6 °C 30.1in /  1017.6hPa WNW 6.9mph /  11.1km/h 15mph /  24.1km/h 50% 0in /  0.0mm 622 W/m2
14:06 66.9 °F /  19.4 °C 47.1 °F /  8.4 °C 30.1in /  1018.0hPa West 8.1mph /  13km/h 13mph /  20.9km/h 49% 0in /  0.0mm 1079 W/m2
14:11 67.3 °F /  19.6 °C 46.9 °F /  8.3 °C 30.1in /  1017.6hPa NNW 4mph /  6.4km/h 9mph /  14.5km/h 48% 0in /  0.0mm 1063 W/m2
14:16 67.5 °F /  19.7 °C 48.2 °F /  9 °C 30.1in /  1017.6hPa WNW 4.9mph /  7.9km/h 13mph /  20.9km/h 50% 0in /  0.0mm 953 W/m2
14:21 67.6 °F /  19.8 °C 48.4 °F /  9.1 °C 30.1in /  1017.6hPa NW 2.9mph /  4.7km/h 12mph /  19.3km/h 50% 0in /  0.0mm 1009 W/m2
14:26 67.5 °F /  19.7 °C 46.6 °F /  8.1 °C 30.1in /  1017.6hPa WSW 4mph /  6.4km/h 10mph /  16.1km/h 47% 0in /  0.0mm 1004 W/m2
14:31 67.5 °F /  19.7 °C 46.6 °F /  8.1 °C 30.1in /  1017.6hPa WSW 6.9mph /  11.1km/h 10mph /  16.1km/h 47% 0in /  0.0mm 1034 W/m2
14:37 67.8 °F /  19.9 °C 46.2 °F /  7.9 °C 30.1in /  1017.6hPa West 8.1mph /  13km/h 8mph /  12.9km/h 46% 0in /  0.0mm 1028 W/m2
14:42 68 °F /  20 °C 46.4 °F /  8 °C 30.1in /  1017.6hPa NNW 2.9mph /  4.7km/h 14mph /  22.5km/h 46% 0in /  0.0mm 283 W/m2
14:47 67.1 °F /  19.5 °C 47.3 °F /  8.5 °C 30.1in /  1017.6hPa WNW 10.1mph /  16.3km/h 10mph /  16.1km/h 49% 0in /  0.0mm 297 W/m2
14:52 66.4 °F /  19.1 °C 46.6 °F /  8.1 °C 30.1in /  1017.6hPa WNW 2.9mph /  4.7km/h 10mph /  16.1km/h 49% 0in /  0.0mm 295 W/m2
14:57 66.2 °F /  19 °C 46.9 °F /  8.3 °C 30.1in /  1018.0hPa NW 4.9mph /  7.9km/h 12mph /  19.3km/h 50% 0in /  0.0mm 223 W/m2
15:02 66 °F /  18.9 °C 47.3 °F /  8.5 °C 30.1in /  1018.0hPa NNW 6mph /  9.7km/h 11mph /  17.7km/h 51% 0in /  0.0mm 185 W/m2
15:07 65.7 °F /  18.7 °C 47.5 °F /  8.6 °C 30.1in /  1018.0hPa West 2.9mph /  4.7km/h 10mph /  16.1km/h 52% 0in /  0.0mm 181 W/m2
15:12 65.5 °F /  18.6 °C 47.5 °F /  8.6 °C 30.1in /  1018.0hPa WNW 4.9mph /  7.9km/h 10mph /  16.1km/h 52% 0in /  0.0mm 165 W/m2
15:17 65.1 °F /  18.4 °C 48 °F /  8.9 °C 30.1in /  1018.0hPa West 6mph /  9.7km/h 13mph /  20.9km/h 54% 0in /  0.0mm 179 W/m2
15:22 65.5 °F /  18.6 °C 48.4 °F /  9.1 °C 30.1in /  1018.0hPa NNW 8.1mph /  13km/h 10mph /  16.1km/h 54% 0in /  0.0mm 434 W/m2
15:27 65.8 °F /  18.8 °C 48.7 °F /  9.3 °C 30.1in /  1018.0hPa West 8.9mph /  14.3km/h 10mph /  16.1km/h 54% 0in /  0.0mm 346 W/m2
15:32 66.7 °F /  19.3 °C 49.1 °F /  9.5 °C 30.1in /  1018.0hPa West 4mph /  6.4km/h 10mph /  16.1km/h 53% 0in /  0.0mm 561 W/m2
15:37 66.7 °F /  19.3 °C 49.1 °F /  9.5 °C 30.1in /  1018.0hPa West 6mph /  9.7km/h 10mph /  16.1km/h 53% 0in /  0.0mm 399 W/m2
15:42 66.6 °F /  19.2 °C 48.9 °F /  9.4 °C 30.1in /  1018.3hPa WNW 6.9mph /  11.1km/h 10mph /  16.1km/h 53% 0in /  0.0mm 397 W/m2
15:47 66.7 °F /  19.3 °C 48.6 °F /  9.2 °C 30.1in /  1018.3hPa WNW 10.1mph /  16.3km/h 18mph /  29km/h 52% 0in /  0.0mm 519 W/m2
15:52 66.4 °F /  19.1 °C 49.3 °F /  9.6 °C 30.1in /  1018.3hPa West 8.9mph /  14.3km/h 9mph /  14.5km/h 54% 0in /  0.0mm 369 W/m2
15:57 66.6 °F /  19.2 °C 48.9 °F /  9.4 °C 30.1in /  1018.3hPa WSW 14.1mph /  22.7km/h 14mph /  22.5km/h 53% 0in /  0.0mm 345 W/m2
16:03 66 °F /  18.9 °C 48.9 °F /  9.4 °C 30.1in /  1018.3hPa West 6mph /  9.7km/h 9mph /  14.5km/h 54% 0in /  0.0mm 281 W/m2
16:08 65.8 °F /  18.8 °C 49.3 °F /  9.6 °C 30.1in /  1018.3hPa SSW 4.9mph /  7.9km/h 9mph /  14.5km/h 55% 0in /  0.0mm 424 W/m2
16:13 65.7 °F /  18.7 °C 49.1 °F /  9.5 °C 30.1in /  1018.3hPa West 6mph /  9.7km/h 8mph /  12.9km/h 55% 0in /  0.0mm 311 W/m2
16:18 66 °F /  18.9 °C 47.8 °F /  8.8 °C 30.1in /  1018.3hPa West 2mph /  3.2km/h 11mph /  17.7km/h 52% 0in /  0.0mm 830 W/m2
16:23 67.1 °F /  19.5 °C 48.9 °F /  9.4 °C 30.1in /  1018.3hPa WNW 4.9mph /  7.9km/h 8mph /  12.9km/h 52% 0in /  0.0mm 777 W/m2
16:28 67.6 °F /  19.8 °C 48.4 °F /  9.1 °C 30.1in /  1018.3hPa NW 13mph /  20.9km/h 13mph /  20.9km/h 50% 0in /  0.0mm 765 W/m2
16:33 68 °F /  20 °C 48.7 °F /  9.3 °C 30.1in /  1018.3hPa WSW 8.1mph /  13km/h 10mph /  16.1km/h 50% 0in /  0.0mm 758 W/m2
16:38 68 °F /  20 °C 48.2 °F /  9 °C 30.1in /  1018.3hPa West 8.1mph /  13km/h 14mph /  22.5km/h 49% 0in /  0.0mm 724 W/m2
16:43 67.6 °F /  19.8 °C 48.4 °F /  9.1 °C 30.1in /  1018.6hPa West 8.9mph /  14.3km/h 10mph /  16.1km/h 50% 0in /  0.0mm 158 W/m2
16:48 67.5 °F /  19.7 °C 47.7 °F /  8.7 °C 30.1in /  1018.6hPa NNW 4.9mph /  7.9km/h 12mph /  19.3km/h 49% 0in /  0.0mm 795 W/m2
16:53 67.6 °F /  19.8 °C 48.4 °F /  9.1 °C 30.1in /  1018.6hPa NNW 8.1mph /  13km/h 11mph /  17.7km/h 50% 0in /  0.0mm 258 W/m2
16:58 66.9 °F /  19.4 °C 47.7 °F /  8.7 °C 30.1in /  1018.6hPa West 8.1mph /  13km/h 14mph /  22.5km/h 50% 0in /  0.0mm 250 W/m2
17:03 66.6 °F /  19.2 °C 47.8 °F /  8.8 °C 30.1in /  1018.6hPa WSW 12.1mph /  19.5km/h 16mph /  25.7km/h 51% 0in /  0.0mm 339 W/m2
17:13 67.3 °F /  19.6 °C 49.6 °F /  9.8 °C 30.1in /  1018.6hPa WSW 4.9mph /  7.9km/h 16mph /  25.7km/h 53% 0in /  0.0mm 390 W/m2
17:18 67.6 °F /  19.8 °C 47.8 °F /  8.8 °C 30.1in /  1018.6hPa West 8.1mph /  13km/h 17mph /  27.4km/h 49% 0in /  0.0mm 679 W/m2
17:23 68.2 °F /  20.1 °C 47.7 °F /  8.7 °C 30.1in /  1018.6hPa WNW 8.1mph /  13km/h 12mph /  19.3km/h 48% 0in /  0.0mm 636 W/m2
17:28 68.2 °F /  20.1 °C 48.4 °F /  9.1 °C 30.1in /  1018.6hPa WSW 8.9mph /  14.3km/h 11mph /  17.7km/h 49% 0in /  0.0mm 628 W/m2
17:33 68.5 °F /  20.3 °C 47.5 °F /  8.6 °C 30.1in /  1018.6hPa West 6.9mph /  11.1km/h 19mph /  30.6km/h 47% 0in /  0.0mm 615 W/m2
17:38 68.4 °F /  20.2 °C 47.8 °F /  8.8 °C 30.1in /  1019.0hPa NW 10.1mph /  16.3km/h 12mph /  19.3km/h 48% 0in /  0.0mm 626 W/m2
17:43 68.2 °F /  20.1 °C 48.4 °F /  9.1 °C 30.1in /  1018.6hPa West 8.1mph /  13km/h 16mph /  25.7km/h 49% 0in /  0.0mm 617 W/m2
17:49 68.4 °F /  20.2 °C 47.8 °F /  8.8 °C 30.1in /  1018.6hPa West 8.9mph /  14.3km/h 11mph /  17.7km/h 48% 0in /  0.0mm 489 W/m2
17:54 67.8 °F /  19.9 °C 48.6 °F /  9.2 °C 30.1in /  1018.6hPa West 8.1mph /  13km/h 14mph /  22.5km/h 50% 0in /  0.0mm 229 W/m2
17:59 67.5 °F /  19.7 °C 48.2 °F /  9 °C 30.1in /  1018.6hPa WNW 6.9mph /  11.1km/h 13mph /  20.9km/h 50% 0in /  0.0mm 207 W/m2
18:04 66.9 °F /  19.4 °C 48.2 °F /  9 °C 30.1in /  1019.0hPa West 2.9mph /  4.7km/h 14mph /  22.5km/h 51% 0in /  0.0mm 144 W/m2
18:09 67.5 °F /  19.7 °C 48.7 °F /  9.3 °C 30.1in /  1019.0hPa WNW 10.1mph /  16.3km/h 12mph /  19.3km/h 51% 0in /  0.0mm 566 W/m2
18:14 67.6 °F /  19.8 °C 48.9 °F /  9.4 °C 30.1in /  1019.0hPa West 8.1mph /  13km/h 11mph /  17.7km/h 51% 0in /  0.0mm 571 W/m2
18:19 68.2 °F /  20.1 °C 49.3 °F /  9.6 °C 30.1in /  1019.0hPa WSW 4.9mph /  7.9km/h 7mph /  11.3km/h 51% 0in /  0.0mm 367 W/m2
18:24 68.5 °F /  20.3 °C 49.1 °F /  9.5 °C 30.1in /  1019.0hPa WNW 4.9mph /  7.9km/h 12mph /  19.3km/h 50% 0in /  0.0mm 506 W/m2
18:29 68.5 °F /  20.3 °C 48.6 °F /  9.2 °C 30.1in /  1019.0hPa West 6.9mph /  11.1km/h 11mph /  17.7km/h 49% 0in /  0.0mm 160 W/m2
18:34 68.4 °F /  20.2 °C 47.3 °F /  8.5 °C 30.1in /  1019.0hPa West 6.9mph /  11.1km/h 10mph /  16.1km/h 47% 0in /  0.0mm 420 W/m2
18:39 68.2 °F /  20.1 °C 47.1 °F /  8.4 °C 30.1in /  1019.0hPa WNW 6mph /  9.7km/h 9mph /  14.5km/h 47% 0in /  0.0mm 301 W/m2
18:44 67.6 °F /  19.8 °C 47.3 °F /  8.5 °C 30.1in /  1019.0hPa NNW 4mph /  6.4km/h 12mph /  19.3km/h 48% 0in /  0.0mm 155 W/m2
18:49 67.3 °F /  19.6 °C 47.5 °F /  8.6 °C 30.1in /  1019.0hPa WNW 6.9mph /  11.1km/h 8mph /  12.9km/h 49% 0in /  0.0mm 125 W/m2
18:54 66.7 °F /  19.3 °C 46.9 °F /  8.3 °C 30.1in /  1019.0hPa WNW 2.9mph /  4.7km/h 7mph /  11.3km/h 49% 0in /  0.0mm 141 W/m2
18:59 66.7 °F /  19.3 °C 47.5 °F /  8.6 °C 30.1in /  1019.0hPa WNW 2mph /  3.2km/h 8mph /  12.9km/h 50% 0in /  0.0mm 132 W/m2
19:04 66.6 °F /  19.2 °C 47.8 °F /  8.8 °C 30.1in /  1019.0hPa West 0.9mph /  1.4km/h 4mph /  6.4km/h 51% 0in /  0.0mm 127 W/m2
19:09 66.9 °F /  19.4 °C 47.7 °F /  8.7 °C 30.1in /  1019.0hPa NNW 2.9mph /  4.7km/h 6mph /  9.7km/h 50% 0in /  0.0mm 149 W/m2
19:14 66.9 °F /  19.4 °C 46.6 °F /  8.1 °C 30.1in /  1019.3hPa West 8.1mph /  13km/h 12mph /  19.3km/h 48% 0in /  0.0mm 125 W/m2
19:19 66.9 °F /  19.4 °C 47.1 °F /  8.4 °C 30.1in /  1019.3hPa WNW 4.9mph /  7.9km/h 7mph /  11.3km/h 49% 0in /  0.0mm 95 W/m2
19:24 67.1 °F /  19.5 °C 47.3 °F /  8.5 °C 30.1in /  1019.0hPa WSW 4.9mph /  7.9km/h 12mph /  19.3km/h 49% 0in /  0.0mm 343 W/m2
19:29 67.5 °F /  19.7 °C 47.1 °F /  8.4 °C 30.1in /  1019.3hPa West 6mph /  9.7km/h 10mph /  16.1km/h 48% 0in /  0.0mm 325 W/m2
19:34 66.9 °F /  19.4 °C 46.6 °F /  8.1 °C 30.1in /  1019.3hPa West 4mph /  6.4km/h 8mph /  12.9km/h 48% 0in /  0.0mm 49 W/m2
19:39 66.4 °F /  19.1 °C 46.6 °F /  8.1 °C 30.1in /  1019.3hPa West 4mph /  6.4km/h 8mph /  12.9km/h 49% 0in /  0.0mm 53 W/m2
19:44 66 °F /  18.9 °C 46.8 °F /  8.2 °C 30.1in /  1019.3hPa NW 2mph /  3.2km/h 7mph /  11.3km/h 50% 0in /  0.0mm 44 W/m2
19:49 65.7 °F /  18.7 °C 47.1 °F /  8.4 °C 30.1in /  1019.3hPa West 4mph /  6.4km/h 6mph /  9.7km/h 51% 0in /  0.0mm 56 W/m2
19:54 65.7 °F /  18.7 °C 47.5 °F /  8.6 °C 30.1in /  1019.3hPa WNW 2mph /  3.2km/h 8mph /  12.9km/h 52% 0in /  0.0mm 83 W/m2
20:00 65.7 °F /  18.7 °C 47.5 °F /  8.6 °C 30.1in /  1019.6hPa West 6mph /  9.7km/h 6mph /  9.7km/h 52% 0in /  0.0mm 79 W/m2
20:05 65.7 °F /  18.7 °C 48 °F /  8.9 °C 30.1in /  1019.6hPa West 4mph /  6.4km/h 8mph /  12.9km/h 53% 0in /  0.0mm 81 W/m2
20:10 65.7 °F /  18.7 °C 47.5 °F /  8.6 °C 30.1in /  1019.6hPa WNW 4mph /  6.4km/h 7mph /  11.3km/h 52% 0in /  0.0mm 77 W/m2
20:15 65.7 °F /  18.7 °C 48 °F /  8.9 °C 30.1in /  1019.6hPa WNW 2.9mph /  4.7km/h 6mph /  9.7km/h 53% 0in /  0.0mm 49 W/m2
20:20 65.5 °F /  18.6 °C 47.8 °F /  8.8 °C 30.1in /  1019.6hPa WNW 2.9mph /  4.7km/h 4mph /  6.4km/h 53% 0in /  0.0mm 46 W/m2
20:25 65.3 °F /  18.5 °C 48.2 °F /  9 °C 30.1in /  1019.6hPa West 4mph /  6.4km/h 5mph /  8km/h 54% 0in /  0.0mm 39 W/m2
20:30 64.9 °F /  18.3 °C 47.8 °F /  8.8 °C 30.1in /  1019.6hPa WSW 4mph /  6.4km/h 6mph /  9.7km/h 54% 0in /  0.0mm 54 W/m2
20:35 65.1 °F /  18.4 °C 48 °F /  8.9 °C 30.1in /  1019.6hPa WNW 4mph /  6.4km/h 7mph /  11.3km/h 54% 0in /  0.0mm 95 W/m2
20:40 65.5 °F /  18.6 °C 48.4 °F /  9.1 °C 30.1in /  1019.6hPa WNW 6mph /  9.7km/h 6mph /  9.7km/h 54% 0in /  0.0mm 86 W/m2
20:45 65.7 °F /  18.7 °C 48.6 °F /  9.2 °C 30.1in /  1019.6hPa West 6mph /  9.7km/h 6mph /  9.7km/h 54% 0in /  0.0mm 77 W/m2
20:50 65.5 °F /  18.6 °C 48.4 °F /  9.1 °C 30.1in /  1019.6hPa WSW 2mph /  3.2km/h 6mph /  9.7km/h 54% 0in /  0.0mm 76 W/m2
20:55 65.5 °F /  18.6 °C 48.4 °F /  9.1 °C 30.1in /  1019.6hPa West 6mph /  9.7km/h 6mph /  9.7km/h 54% 0in /  0.0mm 51 W/m2
21:00 64.9 °F /  18.3 °C 47.8 °F /  8.8 °C 30.1in /  1019.6hPa WNW 2.9mph /  4.7km/h 7mph /  11.3km/h 54% 0in /  0.0mm 35 W/m2
21:05 64.6 °F /  18.1 °C 48 °F /  8.9 °C 30.1in /  1019.6hPa WSW 2mph /  3.2km/h 5mph /  8km/h 55% 0in /  0.0mm 32 W/m2
21:10 64.2 °F /  17.9 °C 47.7 °F /  8.7 °C 30.1in /  1019.6hPa SW 6mph /  9.7km/h 9mph /  14.5km/h 55% 0in /  0.0mm 25 W/m2
21:15 64 °F /  17.8 °C 48 °F /  8.9 °C 30.1in /  1019.6hPa WNW 2.9mph /  4.7km/h 4mph /  6.4km/h 56% 0in /  0.0mm 19 W/m2
21:20 63.9 °F /  17.7 °C 48.4 °F /  9.1 °C 30.1in /  1020.0hPa West 2.9mph /  4.7km/h 8mph /  12.9km/h 57% 0in /  0.0mm 16 W/m2
21:25 63.7 °F /  17.6 °C 48.2 °F /  9 °C 30.1in /  1020.0hPa West 4mph /  6.4km/h 6mph /  9.7km/h 57% 0in /  0.0mm 12 W/m2
21:30 63.3 °F /  17.4 °C 47.8 °F /  8.8 °C 30.1in /  1020.0hPa West 2mph /  3.2km/h 3mph /  4.8km/h 57% 0in /  0.0mm 9 W/m2
21:35 63.1 °F /  17.3 °C 47.7 °F /  8.7 °C 30.1in /  1020.0hPa West 2mph /  3.2km/h 4mph /  6.4km/h 57% 0in /  0.0mm 7 W/m2
21:40 63 °F /  17.2 °C 48 °F /  8.9 °C 30.1in /  1020.0hPa West 2.9mph /  4.7km/h 4mph /  6.4km/h 58% 0in /  0.0mm 5 W/m2
21:46 62.6 °F /  17 °C 47.7 °F /  8.7 °C 30.1in /  1020.3hPa WSW 2mph /  3.2km/h 3mph /  4.8km/h 58% 0in /  0.0mm 0 W/m2
21:51 62.2 °F /  16.8 °C 47.7 °F /  8.7 °C 30.1in /  1020.3hPa West 2.9mph /  4.7km/h 3mph /  4.8km/h 59% 0in /  0.0mm 0 W/m2
21:56 62.1 °F /  16.7 °C 47.5 °F /  8.6 °C 30.1in /  1020.3hPa West 0.9mph /  1.4km/h 6mph /  9.7km/h 59% 0in /  0.0mm 0 W/m2
22:01 61.7 °F /  16.5 °C 47.7 °F /  8.7 °C 30.1in /  1020.3hPa West 2mph /  3.2km/h 4mph /  6.4km/h 60% 0in /  0.0mm 0 W/m2
22:06 61.3 °F /  16.3 °C 47.8 °F /  8.8 °C 30.1in /  1020.7hPa WSW 0.9mph /  1.4km/h 6mph /  9.7km/h 61% 0in /  0.0mm 0 W/m2
22:11 61.2 °F /  16.2 °C 48 °F /  8.9 °C 30.1in /  1020.7hPa West 0.9mph /  1.4km/h 3mph /  4.8km/h 62% 0in /  0.0mm 0 W/m2
22:16 60.8 °F /  16 °C 47.7 °F /  8.7 °C 30.1in /  1020.7hPa WNW 2mph /  3.2km/h 4mph /  6.4km/h 62% 0in /  0.0mm 0 W/m2
22:21 60.6 °F /  15.9 °C 48 °F /  8.9 °C 30.1in /  1020.7hPa WSW 2mph /  3.2km/h 6mph /  9.7km/h 63% 0in /  0.0mm 0 W/m2
22:26 60.4 °F /  15.8 °C 47.8 °F /  8.8 °C 30.2in /  1021.0hPa WSW 2.9mph /  4.7km/h 4mph /  6.4km/h 63% 0in /  0.0mm 0 W/m2
22:31 60.3 °F /  15.7 °C 47.7 °F /  8.7 °C 30.2in /  1021.0hPa West 0.9mph /  1.4km/h 2mph /  3.2km/h 63% 0in /  0.0mm 0 W/m2
22:36 60.3 °F /  15.7 °C 48 °F /  8.9 °C 30.2in /  1021.0hPa West 2.9mph /  4.7km/h 3mph /  4.8km/h 64% 0in /  0.0mm 0 W/m2
22:41 60.1 °F /  15.6 °C 47.8 °F /  8.8 °C 30.2in /  1021.0hPa West 2.9mph /  4.7km/h 4mph /  6.4km/h 64% 0in /  0.0mm 0 W/m2
22:46 59.9 °F /  15.5 °C 47.7 °F /  8.7 °C 30.2in /  1021.0hPa West 0.9mph /  1.4km/h 3mph /  4.8km/h 64% 0in /  0.0mm 0 W/m2
22:52 59.7 °F /  15.4 °C 47.5 °F /  8.6 °C 30.2in /  1021.0hPa WSW 2.9mph /  4.7km/h 3mph /  4.8km/h 64% 0in /  0.0mm 0 W/m2
22:57 59.5 °F /  15.3 °C 47.8 °F /  8.8 °C 30.2in /  1021.0hPa Calm   2mph /  3.2km/h 65% 0in /  0.0mm 0 W/m2
23:02 59.5 °F /  15.3 °C 47.8 °F /  8.8 °C 30.2in /  1021.0hPa WSW 0.9mph /  1.4km/h 2mph /  3.2km/h 65% 0in /  0.0mm 0 W/m2
23:07 59.4 °F /  15.2 °C 47.7 °F /  8.7 °C 30.2in /  1021.0hPa West 2.9mph /  4.7km/h 3mph /  4.8km/h 65% 0in /  0.0mm 0 W/m2
23:12 59.2 °F /  15.1 °C 47.5 °F /  8.6 °C 30.2in /  1021.0hPa WSW 2mph /  3.2km/h 4mph /  6.4km/h 65% 0in /  0.0mm 0 W/m2
23:17 59 °F /  15 °C 47.7 °F /  8.7 °C 30.2in /  1021.0hPa WNW 2mph /  3.2km/h 3mph /  4.8km/h 66% 0in /  0.0mm 0 W/m2
23:22 58.8 °F /  14.9 °C 47.5 °F /  8.6 °C 30.2in /  1021.0hPa West 2mph /  3.2km/h 3mph /  4.8km/h 66% 0in /  0.0mm 0 W/m2
23:27 58.8 °F /  14.9 °C 47.5 °F /  8.6 °C 30.2in /  1021.0hPa West 2mph /  3.2km/h 4mph /  6.4km/h 66% 0in /  0.0mm 0 W/m2
23:32 58.6 °F /  14.8 °C 47.3 °F /  8.5 °C 30.2in /  1021.0hPa WSW 2mph /  3.2km/h 2mph /  3.2km/h 66% 0in /  0.0mm 0 W/m2
23:37 58.5 °F /  14.7 °C 47.5 °F /  8.6 °C 30.2in /  1021.0hPa WSW 0.9mph /  1.4km/h 2mph /  3.2km/h 67% 0in /  0.0mm 0 W/m2
23:42 58.3 °F /  14.6 °C 47.3 °F /  8.5 °C 30.2in /  1021.3hPa WSW 0.9mph /  1.4km/h 1mph /  1.6km/h 67% 0in /  0.0mm 0 W/m2
23:47 57.7 °F /  14.3 °C 47.3 °F /  8.5 °C 30.2in /  1021.3hPa Calm   2mph /  3.2km/h 68% 0in /  0.0mm 0 W/m2
23:52 57.6 °F /  14.2 °C 47.1 °F /  8.4 °C 30.2in /  1021.3hPa Calm   1mph /  1.6km/h 68% 0in /  0.0mm 0 W/m2
23:57 57.4 °F /  14.1 °C 47.3 °F /  8.5 °C 30.2in /  1021.3hPa Calm     69% 0in /  0.0mm 0 W/m2
Juneau County Weather
Compliments of Weather Underground - 4 mb